Kingsville, TX (78363)

9:10 AM CST on January 17, 2017 (GMT -0600)
Kingsville Naval Air Station | | Change Station
Active Advisory: Marine Fog Advisory

Elev 49 ft 27.50 °N, 97.82 °W | Updated 14 minutes ago

Overcast
Overcast
71 °F
Feels Like 71 °F
N
9
Wind Variable Wind from SE

Today
High -- | Low -- °F
--% Chance of Precip.
Yesterday
High -- | Low -- °F
Precip. -- in
Pressure 30.01 in
Visibility 4.0 miles
Clouds Mostly Cloudy 700 ft
Mostly Cloudy 1800 ft
Overcast 2800 ft
Dew Point 71 °F
Humidity 100%
Rainfall 0.00 in
Snow Depth Not available.
7:22 AM 6:00 PM
Waning Gibbous, 72% visible
METAR KNQI 171456Z 14008KT 4SM BR BKN007 BKN018 OVC028 22/22 A3002 RMK AO2 SLP163 T02170217 53026 $
Pressure 30.01 in
Visibility 4.0 miles
Clouds Mostly Cloudy 700 ft
Mostly Cloudy 1800 ft
Overcast 2800 ft
Dew Point 71 °F
Humidity 100%
Rainfall 0.00 in
Snow Depth Not available.
7:22 AM 6:00 PM
Waning Gibbous, 72% visible
METAR KNQI 171456Z 14008KT 4SM BR BKN007 BKN018 OVC028 22/22 A3002 RMK AO2 SLP163 T02170217 53026 $

Get Your Daily Forecast Email!

Thanks for signing up!

Be on the lookout for a verification email in your inbox.

You'll start receiving the daily forecast at 8 AM.

×

10-Day Weather Forecast

Almanac

Astronomy

Jan. 17, 2017 Rise Set
Actual Time
Civil Twilight
Nautical Twilight
Astronomical Twilight
Moon
Length of Visible Light
Length of Day
Tomorrow will be .
, % of the Moon is Illuminated

Today's Extremes

State Highs State Lows

Community

WunderPhotos

Upload Photos

1,962,540 photos uploaded!

WunderBlog® & News

Nearby

Air Quality

  Air Quality AQ Index Pollutant
Not available.

Snow Depth

Station Depth Elevation

Earthquake Activity

City Distance Mag. Time & Date
Minimum magnitude displayed is 2.5.

Coastal Water Temperatures

Place Temperature

Stations

Nearby Weather Stations

Station Location Temp. Windchill Dew Point Humidity Wind Precip. Elev Updated Type
                   

Watches & Warnings

Marine Fog Advisory
Issued: 6:29 AM CST Jan. 17, 2017 – National Weather Service

... Dense fog advisory in effect until 10 am CST this morning...

The National Weather Service in Corpus Christi has issued a dense
fog advisory... which is in effect until 10 am CST this morning.

* Visibility: one nautical mile or less.

Precautionary/preparedness actions...

A dense fog advisory means visibilities will frequently be
reduced to less than one mile. Inexperienced mariners...
especially those operating smaller vessels should avoid
navigating in these conditions.



87